createdAt,value
2017-06-17T00:00:13.112Z,0
2017-06-17T00:01:13.867Z,0
2017-06-17T00:02:14.924Z,0
2017-06-17T00:03:15.679Z,0
2017-06-17T00:04:16.374Z,0
2017-06-17T00:05:17.064Z,0
2017-06-17T00:06:17.844Z,0
2017-06-17T00:07:18.533Z,0
2017-06-17T00:08:19.466Z,0
2017-06-17T00:09:20.168Z,0
2017-06-17T00:10:20.862Z,0
2017-06-17T00:11:22.116Z,0
2017-06-17T00:12:22.770Z,0
2017-06-17T00:13:23.471Z,0
2017-06-17T00:14:24.452Z,0
2017-06-17T00:15:25.143Z,0
2017-06-17T00:16:25.887Z,0
2017-06-17T00:17:26.582Z,0
2017-06-17T00:18:27.340Z,0
2017-06-17T00:19:28.033Z,0
2017-06-17T00:20:29.040Z,0
2017-06-17T00:21:29.983Z,0
2017-06-17T00:22:30.716Z,0
2017-06-17T00:23:31.413Z,0
2017-06-17T00:24:32.091Z,0
2017-06-17T00:25:32.792Z,0
2017-06-17T00:26:33.843Z,0
2017-06-17T00:27:34.765Z,0
2017-06-17T00:28:35.459Z,0
2017-06-17T00:29:36.406Z,0
2017-06-17T00:30:37.091Z,0
2017-06-17T00:31:37.827Z,0
2017-06-17T00:32:38.515Z,0
2017-06-17T00:33:39.446Z,0
2017-06-17T00:34:40.545Z,0
2017-06-17T00:35:41.224Z,0
2017-06-17T00:36:41.905Z,0
2017-06-17T00:37:42.594Z,0
2017-06-17T00:38:43.291Z,0
2017-06-17T00:39:44.369Z,0
2017-06-17T00:40:45.108Z,0
2017-06-17T00:41:45.810Z,0
2017-06-17T00:42:46.502Z,0
2017-06-17T00:43:47.193Z,0
2017-06-17T00:44:47.956Z,0
2017-06-17T00:45:49.005Z,0
2017-06-17T00:46:49.752Z,0
2017-06-17T00:47:50.489Z,0
2017-06-17T00:48:51.184Z,0
2017-06-17T00:49:51.920Z,0
2017-06-17T00:50:52.641Z,0
2017-06-17T00:51:53.544Z,0
2017-06-17T00:52:54.246Z,0
2017-06-17T00:53:54.997Z,0
2017-06-17T00:54:56.209Z,0
2017-06-17T00:55:56.962Z,0
2017-06-17T00:56:57.614Z,0
2017-06-17T00:57:58.596Z,0
2017-06-17T00:58:59.282Z,0
2017-06-17T01:00:00.009Z,0
2017-06-17T01:01:00.766Z,0
2017-06-17T01:02:01.474Z,0
2017-06-17T01:03:02.538Z,0
2017-06-17T01:04:03.237Z,0
2017-06-17T01:05:04.231Z,0
2017-06-17T01:06:04.908Z,0
2017-06-17T01:07:05.664Z,0
2017-06-17T01:08:06.374Z,0
2017-06-17T01:09:07.086Z,0
2017-06-17T01:10:07.874Z,0
2017-06-17T01:11:08.918Z,0
2017-06-17T01:12:09.596Z,0
2017-06-17T01:13:10.298Z,0
2017-06-17T01:14:11.001Z,0
2017-06-17T01:15:12.267Z,0
2017-06-17T01:16:13.026Z,0
2017-06-17T01:17:13.967Z,0
2017-06-17T01:18:14.711Z,0
2017-06-17T01:19:15.443Z,0
2017-06-17T01:20:16.187Z,0
2017-06-17T01:21:16.885Z,0
2017-06-17T01:22:17.635Z,0
2017-06-17T01:23:18.629Z,0
2017-06-17T01:24:19.327Z,0
2017-06-17T01:25:20.010Z,0
2017-06-17T01:26:20.712Z,0
2017-06-17T01:27:21.406Z,0
2017-06-17T01:28:22.139Z,0
2017-06-17T01:29:23.132Z,0
2017-06-17T01:30:23.832Z,0
2017-06-17T01:31:24.526Z,0
2017-06-17T01:32:25.208Z,0
2017-06-17T01:33:26.062Z,0
2017-06-17T01:34:26.816Z,0
2017-06-17T01:35:27.752Z,0
2017-06-17T01:36:28.531Z,0
2017-06-17T01:37:29.183Z,0
2017-06-17T01:38:30.077Z,0
2017-06-17T01:39:30.793Z,0
2017-06-17T01:40:31.461Z,0
2017-06-17T01:41:32.409Z,0
2017-06-17T01:42:33.150Z,0
2017-06-17T01:43:34.091Z,0
2017-06-17T01:44:34.784Z,0
2017-06-17T01:45:35.465Z,0
2017-06-17T01:46:36.454Z,0
2017-06-17T01:47:37.445Z,0
2017-06-17T01:48:38.233Z,0
2017-06-17T01:49:38.975Z,0
2017-06-17T01:50:39.984Z,0
2017-06-17T01:51:41.002Z,0
2017-06-17T01:52:41.694Z,0
2017-06-17T01:53:42.776Z,0
2017-06-17T01:54:43.515Z,0
2017-06-17T01:55:44.559Z,0
2017-06-17T01:56:45.314Z,0
2017-06-17T01:57:46.004Z,0
2017-06-17T01:58:46.685Z,0
2017-06-17T01:59:47.674Z,0
2017-06-17T02:00:48.504Z,0
2017-06-17T02:01:49.199Z,0
2017-06-17T02:02:49.969Z,0
2017-06-17T02:03:50.717Z,0
2017-06-17T02:04:51.394Z,0
2017-06-17T02:05:52.835Z,0
2017-06-17T02:06:53.533Z,0
2017-06-17T02:07:54.233Z,0
2017-06-17T02:08:54.923Z,0
2017-06-17T02:09:55.605Z,0
2017-06-17T02:10:56.406Z,0
2017-06-17T02:11:57.393Z,0
2017-06-17T02:12:58.086Z,0
2017-06-17T02:13:58.870Z,0
2017-06-17T02:14:59.526Z,0
2017-06-17T02:16:00.278Z,0
2017-06-17T02:17:00.970Z,0
2017-06-17T02:18:01.917Z,0
2017-06-17T02:19:02.604Z,0
2017-06-17T02:20:03.301Z,0
2017-06-17T02:21:04.053Z,0
2017-06-17T02:22:04.849Z,0
2017-06-17T02:23:05.541Z,0
2017-06-17T02:24:06.529Z,0
2017-06-17T02:25:07.552Z,0
2017-06-17T02:26:08.247Z,0
2017-06-17T02:27:09.088Z,0
2017-06-17T02:28:09.791Z,0
2017-06-17T02:29:10.480Z,0
2017-06-17T02:30:11.461Z,0
2017-06-17T02:31:12.152Z,0
2017-06-17T02:32:12.855Z,0
2017-06-17T02:33:13.624Z,0
2017-06-17T02:34:14.300Z,0
2017-06-17T02:35:15.053Z,0
2017-06-17T02:36:16.036Z,0
2017-06-17T02:37:16.784Z,0
2017-06-17T02:38:17.494Z,0
2017-06-17T02:39:18.232Z,0
2017-06-17T02:40:18.929Z,0
2017-06-17T02:41:19.613Z,0
2017-06-17T02:42:20.647Z,0
2017-06-17T02:43:21.332Z,0
2017-06-17T02:44:22.019Z,0
2017-06-17T02:45:22.719Z,4
2017-06-17T02:46:23.405Z,4
2017-06-17T02:47:24.156Z,4
2017-06-17T02:48:25.088Z,0
2017-06-17T02:49:25.772Z,4
2017-06-17T02:50:26.473Z,4
2017-06-17T02:51:27.231Z,4
2017-06-17T02:52:27.995Z,4
2017-06-17T02:53:28.671Z,4
2017-06-17T02:54:29.595Z,4
2017-06-17T02:55:30.351Z,4
2017-06-17T02:56:31.035Z,8
2017-06-17T02:57:31.784Z,8
2017-06-17T02:58:32.480Z,8
2017-06-17T02:59:33.182Z,12
2017-06-17T03:00:33.862Z,12
2017-06-17T03:01:34.912Z,12
2017-06-17T03:02:35.648Z,12
2017-06-17T03:03:36.348Z,12
2017-06-17T03:04:37.048Z,12
2017-06-17T03:05:37.745Z,12
2017-06-17T03:06:38.486Z,16
2017-06-17T03:07:39.903Z,16
2017-06-17T03:08:40.575Z,16
2017-06-17T03:09:41.321Z,20
2017-06-17T03:10:42.020Z,20
2017-06-17T03:11:43.036Z,24
2017-06-17T03:12:43.735Z,24
2017-06-17T03:13:44.988Z,28
2017-06-17T03:14:45.689Z,32
2017-06-17T03:15:46.490Z,36
2017-06-17T03:16:47.170Z,40
2017-06-17T03:17:47.953Z,44
2017-06-17T03:18:48.654Z,52
2017-06-17T03:19:49.648Z,56
2017-06-17T03:20:50.348Z,56
2017-06-17T03:21:51.044Z,64
2017-06-17T03:22:51.789Z,68
2017-06-17T03:23:52.539Z,72
2017-06-17T03:24:53.558Z,72
2017-06-17T03:25:54.530Z,76
2017-06-17T03:26:55.275Z,80
2017-06-17T03:27:56.062Z,84
2017-06-17T03:28:56.800Z,88
2017-06-17T03:29:57.544Z,92
2017-06-17T03:30:58.299Z,96
2017-06-17T03:31:59.192Z,96
2017-06-17T03:32:59.893Z,100
2017-06-17T03:34:00.640Z,104
2017-06-17T03:35:01.339Z,108
2017-06-17T03:36:02.033Z,108
2017-06-17T03:37:02.844Z,116
2017-06-17T03:38:03.834Z,120
2017-06-17T03:39:04.533Z,124
2017-06-17T03:40:05.290Z,124
2017-06-17T03:41:06.041Z,120
2017-06-17T03:42:06.734Z,112
2017-06-17T03:43:07.433Z,108
2017-06-17T03:44:08.114Z,112
2017-06-17T03:45:09.407Z,120
2017-06-17T03:46:10.112Z,128
2017-06-17T03:47:10.911Z,140
2017-06-17T03:48:11.702Z,152
2017-06-17T03:49:12.396Z,164
2017-06-17T03:50:13.092Z,176
2017-06-17T03:51:14.029Z,196
2017-06-17T03:52:14.739Z,212
2017-06-17T03:53:15.659Z,228
2017-06-17T03:54:16.357Z,248
2017-06-17T03:55:17.104Z,272
2017-06-17T03:56:17.882Z,300
2017-06-17T03:57:18.896Z,328
2017-06-17T03:58:19.699Z,368
2017-06-17T03:59:20.381Z,392
2017-06-17T04:00:21.119Z,416
2017-06-17T04:01:21.808Z,444
2017-06-17T04:02:22.498Z,464
2017-06-17T04:03:23.593Z,476
2017-06-17T04:04:24.271Z,476
2017-06-17T04:05:25.279Z,480
2017-06-17T04:06:26.041Z,488
2017-06-17T04:07:26.744Z,504
2017-06-17T04:08:27.584Z,536
2017-06-17T04:09:28.670Z,552
2017-06-17T04:10:29.378Z,576
2017-06-17T04:11:30.131Z,616
2017-06-17T04:12:30.791Z,668
2017-06-17T04:13:31.496Z,736
2017-06-17T04:14:32.245Z,816
2017-06-17T04:15:33.304Z,844
2017-06-17T04:16:34.038Z,836
2017-06-17T04:17:34.722Z,840
2017-06-17T04:18:35.410Z,820
2017-06-17T04:19:36.172Z,800
2017-06-17T04:20:36.870Z,780
2017-06-17T04:21:37.797Z,788
2017-06-17T04:22:38.795Z,816
2017-06-17T04:23:39.501Z,868
2017-06-17T04:24:40.300Z,920
2017-06-17T04:25:40.997Z,948
2017-06-17T04:26:41.696Z,956
2017-06-17T04:27:42.636Z,996
2017-06-17T04:28:43.319Z,1032
2017-06-17T04:29:44.069Z,1052
2017-06-17T04:30:44.773Z,1060
2017-06-17T04:31:45.536Z,1036
2017-06-17T04:32:46.240Z,1000
2017-06-17T04:33:47.185Z,992
2017-06-17T04:34:47.953Z,1004
2017-06-17T04:35:48.647Z,1032
2017-06-17T04:36:49.335Z,1048
2017-06-17T04:37:50.071Z,1060
2017-06-17T04:38:50.878Z,1076
2017-06-17T04:39:51.982Z,1104
2017-06-17T04:40:53.001Z,1156
2017-06-17T04:41:53.756Z,1200
2017-06-17T04:42:54.438Z,1208
2017-06-17T04:43:55.128Z,1192
2017-06-17T04:44:55.972Z,1152
2017-06-17T04:45:56.911Z,1128
2017-06-17T04:46:57.666Z,1144
2017-06-17T04:47:58.356Z,1192
2017-06-17T04:48:59.115Z,1272
2017-06-17T04:49:59.925Z,1340
2017-06-17T04:51:00.696Z,1368
2017-06-17T04:52:01.675Z,1396
2017-06-17T04:53:02.361Z,1444
2017-06-17T04:54:03.071Z,1516
2017-06-17T04:55:03.853Z,1584
2017-06-17T04:56:04.601Z,1644
2017-06-17T04:57:05.304Z,1632
2017-06-17T04:58:06.061Z,1608
2017-06-17T04:59:07.059Z,1592
2017-06-17T05:00:07.816Z,1588
2017-06-17T05:01:08.505Z,1604
2017-06-17T05:02:09.296Z,1612
2017-06-17T05:03:10.000Z,1636
2017-06-17T05:04:10.720Z,1652
2017-06-17T05:05:11.651Z,1636
2017-06-17T05:06:12.344Z,1604
2017-06-17T05:07:13.106Z,1548
2017-06-17T05:08:13.809Z,1480
2017-06-17T05:09:14.844Z,1460
2017-06-17T05:10:15.542Z,1560
2017-06-17T05:11:16.536Z,1612
2017-06-17T05:12:17.387Z,1636
2017-06-17T05:13:18.130Z,1720
2017-06-17T05:14:18.818Z,1780
2017-06-17T05:15:19.506Z,1768
2017-06-17T05:16:20.261Z,1764
2017-06-17T05:17:21.363Z,1776
2017-06-17T05:18:22.133Z,1792
2017-06-17T05:19:22.880Z,1840
2017-06-17T05:20:23.556Z,1900
2017-06-17T05:21:24.261Z,1960
2017-06-17T05:22:24.968Z,2068
2017-06-17T05:23:26.000Z,2120
2017-06-17T05:24:27.007Z,2096
2017-06-17T05:25:27.751Z,2140
2017-06-17T05:26:28.496Z,2200
2017-06-17T05:27:29.199Z,2220
2017-06-17T05:28:29.899Z,2200
2017-06-17T05:29:30.903Z,2192
2017-06-17T05:30:31.593Z,2180
2017-06-17T05:31:32.286Z,2128
2017-06-17T05:32:32.975Z,2084
2017-06-17T05:33:33.712Z,2052
2017-06-17T05:34:34.758Z,2064
2017-06-17T05:35:35.691Z,2016
2017-06-17T05:36:36.393Z,1944
2017-06-17T05:37:37.111Z,1892
2017-06-17T05:38:37.834Z,1780
2017-06-17T05:39:38.518Z,1524
2017-06-17T05:40:39.210Z,1360
2017-06-17T05:41:39.922Z,1280
2017-06-17T05:42:40.916Z,1224
2017-06-17T05:43:41.598Z,1244
2017-06-17T05:44:42.389Z,1184
2017-06-17T05:45:43.103Z,1120
2017-06-17T05:46:43.778Z,1176
2017-06-17T05:47:44.476Z,1272
2017-06-17T05:48:45.483Z,1380
2017-06-17T05:49:46.372Z,1452
2017-06-17T05:50:47.068Z,1432
2017-06-17T05:51:47.756Z,1472
2017-06-17T05:52:48.512Z,1612
2017-06-17T05:53:49.272Z,1708
2017-06-17T05:54:50.317Z,1772
2017-06-17T05:55:51.034Z,1856
2017-06-17T05:56:51.707Z,1968
2017-06-17T05:57:52.408Z,2040
2017-06-17T05:58:53.134Z,2100
2017-06-17T05:59:53.855Z,2100
2017-06-17T06:00:54.858Z,2076
2017-06-17T06:01:55.556Z,2188
2017-06-17T06:02:56.581Z,2244
2017-06-17T06:03:57.284Z,2204
2017-06-17T06:04:58.053Z,2156
2017-06-17T06:05:58.792Z,2248
2017-06-17T06:06:59.808Z,2360
2017-06-17T06:08:00.499Z,2460
2017-06-17T06:09:01.196Z,2532
2017-06-17T06:10:01.953Z,2388
2017-06-17T06:11:02.685Z,2456
2017-06-17T06:12:03.371Z,2656
2017-06-17T06:13:04.367Z,2680
2017-06-17T06:14:05.066Z,2564
2017-06-17T06:15:05.809Z,2260
2017-06-17T06:16:06.549Z,2080
2017-06-17T06:17:07.249Z,1976
2017-06-17T06:18:07.965Z,1812
2017-06-17T06:19:08.901Z,1596
2017-06-17T06:20:09.820Z,1468
2017-06-17T06:21:10.488Z,1412
2017-06-17T06:22:11.278Z,1440
2017-06-17T06:23:12.024Z,1568
2017-06-17T06:24:12.772Z,1840
2017-06-17T06:25:13.769Z,2084
2017-06-17T06:26:14.565Z,2080
2017-06-17T06:27:15.379Z,2064
2017-06-17T06:28:16.070Z,2080
2017-06-17T06:29:16.824Z,2080
2017-06-17T06:30:17.531Z,2088
2017-06-17T06:31:18.471Z,2160
2017-06-17T06:32:19.163Z,2256
2017-06-17T06:33:19.851Z,2060
2017-06-17T06:34:20.541Z,1844
2017-06-17T06:35:21.242Z,1744
2017-06-17T06:36:21.946Z,1656
2017-06-17T06:37:22.933Z,1544
2017-06-17T06:38:23.631Z,1516
2017-06-17T06:39:24.324Z,1604
2017-06-17T06:40:25.038Z,1676
2017-06-17T06:41:25.778Z,1672
2017-06-17T06:42:26.508Z,1704
2017-06-17T06:43:27.499Z,1736
2017-06-17T06:44:28.207Z,1776
2017-06-17T06:45:28.931Z,1840
2017-06-17T06:46:29.597Z,1916
2017-06-17T06:47:30.387Z,2068
2017-06-17T06:48:31.109Z,2184
2017-06-17T06:49:32.131Z,2152
2017-06-17T06:50:32.803Z,2052
2017-06-17T06:51:33.548Z,2080
2017-06-17T06:52:34.239Z,2172
2017-06-17T06:53:34.994Z,2164
2017-06-17T06:54:35.802Z,2160
2017-06-17T06:55:36.466Z,2152
2017-06-17T06:56:37.171Z,2184
2017-06-17T06:57:37.860Z,2412
2017-06-17T06:58:38.570Z,2632
2017-06-17T06:59:39.362Z,2548
2017-06-17T07:00:40.064Z,2608
2017-06-17T07:01:41.063Z,2744
2017-06-17T07:02:41.748Z,2808
2017-06-17T07:03:42.494Z,2948
2017-06-17T07:04:43.291Z,3136
2017-06-17T07:05:43.996Z,3256
2017-06-17T07:06:44.683Z,3332
2017-06-17T07:07:45.682Z,3268
2017-06-17T07:08:46.387Z,2968
2017-06-17T07:09:47.184Z,2828
2017-06-17T07:10:47.886Z,2812
2017-06-17T07:11:48.588Z,2616
2017-06-17T07:12:49.292Z,2528
2017-06-17T07:13:50.350Z,2524
2017-06-17T07:14:51.124Z,2476
2017-06-17T07:15:51.828Z,2460
2017-06-17T07:16:52.601Z,2368
2017-06-17T07:17:53.283Z,2304
2017-06-17T07:18:54.064Z,2272
2017-06-17T07:19:54.977Z,2232
2017-06-17T07:20:55.702Z,2288
2017-06-17T07:21:56.421Z,2404
2017-06-17T07:22:57.149Z,2488
2017-06-17T07:23:57.908Z,2596
2017-06-17T07:24:58.652Z,2724
2017-06-17T07:25:59.351Z,2860
2017-06-17T07:27:00.406Z,2880
2017-06-17T07:28:01.096Z,3040
2017-06-17T07:29:02.195Z,3044
2017-06-17T07:30:02.884Z,3104
2017-06-17T07:31:03.635Z,3232
2017-06-17T07:32:04.337Z,3340
2017-06-17T07:33:05.277Z,3268
2017-06-17T07:34:05.985Z,3396
2017-06-17T07:35:06.750Z,3624
2017-06-17T07:36:07.755Z,3676
2017-06-17T07:37:08.464Z,3620
2017-06-17T07:38:09.166Z,3564
2017-06-17T07:39:10.159Z,3596
2017-06-17T07:40:10.860Z,3760
2017-06-17T07:41:11.662Z,3864
2017-06-17T07:42:12.368Z,3880
2017-06-17T07:43:13.070Z,3844
2017-06-17T07:44:13.773Z,3680
2017-06-17T07:45:14.501Z,3632
2017-06-17T07:46:15.489Z,3588
2017-06-17T07:47:16.241Z,3496
2017-06-17T07:48:16.943Z,3508
2017-06-17T07:49:17.640Z,3788
2017-06-17T07:50:18.345Z,4252
2017-06-17T07:51:19.303Z,4532
2017-06-17T07:52:19.990Z,4604
2017-06-17T07:53:20.757Z,4648
2017-06-17T07:54:21.520Z,4536
2017-06-17T07:55:22.284Z,4496
2017-06-17T07:56:23.059Z,4568
2017-06-17T07:57:24.003Z,4872
2017-06-17T07:58:24.750Z,5200
2017-06-17T07:59:25.448Z,5148
2017-06-17T08:00:26.203Z,4824
2017-06-17T08:01:26.927Z,4828
2017-06-17T08:02:27.609Z,4848
2017-06-17T08:03:28.564Z,5000
2017-06-17T08:04:29.425Z,5292
2017-06-17T08:05:30.119Z,5456
2017-06-17T08:06:30.832Z,5344
2017-06-17T08:07:31.523Z,5352
2017-06-17T08:08:32.221Z,5312
2017-06-17T08:09:33.365Z,5480
2017-06-17T08:10:34.136Z,5556
2017-06-17T08:11:34.829Z,5496
2017-06-17T08:12:35.575Z,5472
2017-06-17T08:13:36.274Z,5076
2017-06-17T08:14:37.277Z,4808
2017-06-17T08:15:38.273Z,4988
2017-06-17T08:16:38.988Z,5136
2017-06-17T08:17:39.859Z,5384
2017-06-17T08:18:40.580Z,5488
2017-06-17T08:19:41.278Z,5360
2017-06-17T08:20:42.315Z,5136
2017-06-17T08:21:43.019Z,4980
2017-06-17T08:22:43.887Z,5044
2017-06-17T08:23:44.585Z,5356
2017-06-17T08:24:45.336Z,5668
2017-06-17T08:25:46.090Z,5764
2017-06-17T08:26:47.038Z,5752
2017-06-17T08:27:47.792Z,5796
2017-06-17T08:28:48.480Z,5472
2017-06-17T08:29:49.179Z,4916
2017-06-17T08:30:49.915Z,4696
2017-06-17T08:31:50.618Z,4596
2017-06-17T08:32:51.630Z,4572
2017-06-17T08:33:52.515Z,4816
2017-06-17T08:34:53.216Z,4904
2017-06-17T08:35:53.925Z,5296
2017-06-17T08:36:54.667Z,5700
2017-06-17T08:37:55.371Z,5612
2017-06-17T08:38:56.749Z,5480
2017-06-17T08:39:57.503Z,5328
2017-06-17T08:40:58.339Z,5224
2017-06-17T08:41:59.051Z,5148
2017-06-17T08:42:59.761Z,5268
2017-06-17T08:44:00.796Z,5276
2017-06-17T08:45:01.545Z,5284
2017-06-17T08:46:02.242Z,5396
2017-06-17T08:47:02.991Z,5604
2017-06-17T08:48:03.764Z,6124
2017-06-17T08:49:04.457Z,6364
2017-06-17T08:50:05.174Z,6080
2017-06-17T08:51:06.214Z,6024
2017-06-17T08:52:06.912Z,5928
2017-06-17T08:53:07.644Z,5784
2017-06-17T08:54:08.390Z,5696
2017-06-17T08:55:09.153Z,5492
2017-06-17T08:56:09.861Z,5300
2017-06-17T08:57:10.837Z,5220
2017-06-17T08:58:11.856Z,5308
2017-06-17T08:59:12.643Z,5428
2017-06-17T09:00:13.339Z,5632
2017-06-17T09:01:14.190Z,5984
2017-06-17T09:02:14.894Z,6136
2017-06-17T09:03:15.890Z,6040
2017-06-17T09:04:16.583Z,6024
2017-06-17T09:05:17.284Z,6064
2017-06-17T09:06:18.181Z,6176
2017-06-17T09:07:18.890Z,5944
2017-06-17T09:08:19.638Z,5808
2017-06-17T09:09:20.337Z,6064
2017-06-17T09:10:21.341Z,6120
2017-06-17T09:11:22.032Z,5988
2017-06-17T09:12:22.733Z,5672
2017-06-17T09:13:23.484Z,5608
2017-06-17T09:14:24.191Z,5428
2017-06-17T09:15:24.885Z,5328
2017-06-17T09:16:25.838Z,5496
2017-06-17T09:17:26.601Z,5732
2017-06-17T09:18:27.304Z,5820
2017-06-17T09:19:27.986Z,5784
2017-06-17T09:20:28.806Z,5964
2017-06-17T09:21:29.561Z,6264
2017-06-17T09:22:30.267Z,6488
2017-06-17T09:23:31.026Z,6764
2017-06-17T09:24:31.772Z,7120
2017-06-17T09:25:32.565Z,7492
2017-06-17T09:26:33.301Z,7460
2017-06-17T09:27:34.277Z,7356
2017-06-17T09:28:35.026Z,7368
2017-06-17T09:29:35.727Z,7444
2017-06-17T09:30:36.428Z,7608
2017-06-17T09:31:37.196Z,7804
2017-06-17T09:32:37.867Z,8084
2017-06-17T09:33:38.893Z,8116
2017-06-17T09:34:39.598Z,7820
2017-06-17T09:35:40.385Z,7372
2017-06-17T09:36:41.057Z,7192
2017-06-17T09:37:41.811Z,7264
2017-06-17T09:39:58.410Z,6948
2017-06-17T09:40:59.121Z,6832
2017-06-17T09:41:59.823Z,6816
2017-06-17T09:43:00.531Z,6912
2017-06-17T09:44:01.310Z,7132
2017-06-17T09:45:02.109Z,7292
2017-06-17T09:46:02.917Z,7256
2017-06-17T09:47:03.980Z,7300
2017-06-17T09:48:04.685Z,7464
2017-06-17T09:49:05.407Z,7680
2017-06-17T09:50:06.140Z,7700
2017-06-17T09:51:07.116Z,8008
2017-06-17T09:52:07.800Z,8332
2017-06-17T09:53:08.845Z,8280
2017-06-17T09:54:09.541Z,8160
2017-06-17T09:55:10.242Z,7940
2017-06-17T09:56:10.949Z,7688
2017-06-17T09:57:11.725Z,7340
2017-06-17T09:58:12.415Z,6872
2017-06-17T09:59:13.431Z,6124
2017-06-17T10:00:14.119Z,5772
2017-06-17T10:01:14.824Z,5596
2017-06-17T10:02:15.527Z,5372
2017-06-17T10:03:16.223Z,5196
2017-06-17T10:04:16.974Z,5108
2017-06-17T10:05:17.974Z,4960
2017-06-17T10:06:18.989Z,4792
2017-06-17T10:07:19.697Z,4684
2017-06-17T10:08:20.490Z,4680
2017-06-17T10:09:21.191Z,4752
2017-06-17T10:10:21.873Z,4832
2017-06-17T10:11:22.935Z,5036
2017-06-17T10:12:23.637Z,5180
2017-06-17T10:13:24.448Z,5280
2017-06-17T10:14:25.161Z,5256
2017-06-17T10:15:25.860Z,5304
2017-06-17T10:16:26.567Z,5552
2017-06-17T10:17:27.519Z,5928
2017-06-17T10:18:28.587Z,6224
2017-06-17T10:19:29.270Z,6448
2017-06-17T10:20:29.970Z,6652
2017-06-17T10:21:30.673Z,6640
2017-06-17T10:22:31.370Z,6256
2017-06-17T10:23:32.216Z,5956
2017-06-17T10:24:32.911Z,5880
2017-06-17T10:25:33.701Z,5900
2017-06-17T10:26:34.421Z,5612
2017-06-17T10:27:35.113Z,5536
2017-06-17T10:28:36.176Z,5796
2017-06-17T10:29:36.882Z,5724
2017-06-17T10:30:37.893Z,5988
2017-06-17T10:31:38.612Z,6188
2017-06-17T10:32:39.371Z,6112
2017-06-17T10:33:40.338Z,5676
2017-06-17T10:34:41.369Z,5528
2017-06-17T10:35:42.084Z,5104
2017-06-17T10:36:42.797Z,5084
2017-06-17T10:37:43.583Z,5252
2017-06-17T10:38:44.496Z,5440
2017-06-17T10:39:45.205Z,5488
2017-06-17T10:40:46.151Z,5616
2017-06-17T10:41:46.918Z,5884
2017-06-17T10:42:47.627Z,5960
2017-06-17T10:43:48.904Z,6072
2017-06-17T10:44:49.610Z,6020
2017-06-17T10:45:50.309Z,5968
2017-06-17T10:46:51.317Z,6080
2017-06-17T10:47:52.015Z,6236
2017-06-17T10:48:52.722Z,6264
2017-06-17T10:49:53.490Z,6688
2017-06-17T10:50:54.219Z,7380
2017-06-17T10:51:54.958Z,7792
2017-06-17T10:52:55.994Z,7844
2017-06-17T10:53:56.706Z,7712
2017-06-17T10:54:57.434Z,7784
2017-06-17T10:55:58.136Z,8104
2017-06-17T10:56:58.808Z,8240
2017-06-17T10:57:59.706Z,8376
2017-06-17T10:59:00.464Z,8168
2017-06-17T11:00:01.477Z,7944
2017-06-17T11:01:02.171Z,7688
2017-06-17T11:02:02.877Z,7840
2017-06-17T11:03:03.571Z,8336
2017-06-17T11:04:04.323Z,8592
2017-06-17T11:05:05.022Z,8664
2017-06-17T11:06:06.058Z,9040
2017-06-17T11:07:06.808Z,9516
2017-06-17T11:08:07.649Z,9768
2017-06-17T11:09:08.405Z,9768
2017-06-17T11:10:09.159Z,9684
2017-06-17T11:11:09.912Z,9716
2017-06-17T11:12:10.627Z,9932
2017-06-17T11:13:11.331Z,10156
2017-06-17T11:14:12.084Z,10296
2017-06-17T11:15:12.780Z,10304
2017-06-17T11:16:13.538Z,10256
2017-06-17T11:17:14.537Z,10232
2017-06-17T11:18:15.225Z,10384
2017-06-17T11:19:16.078Z,10580
2017-06-17T11:20:16.832Z,10764
2017-06-17T11:21:17.529Z,10580
2017-06-17T11:22:18.298Z,10100
2017-06-17T11:23:19.232Z,9760
2017-06-17T11:24:19.922Z,9648
2017-06-17T11:25:20.641Z,9912
2017-06-17T11:26:21.385Z,9848
2017-06-17T11:27:22.442Z,9624
2017-06-17T11:28:23.145Z,9484
2017-06-17T11:29:23.848Z,9364
2017-06-17T11:30:24.852Z,9432
2017-06-17T11:31:25.540Z,9644
2017-06-17T11:32:26.291Z,9700
2017-06-17T11:33:27.300Z,9912
2017-06-17T11:34:27.998Z,10164
2017-06-17T11:35:28.699Z,9868
2017-06-17T11:36:29.644Z,9248
2017-06-17T11:37:30.439Z,9504
2017-06-17T11:38:31.151Z,10364
2017-06-17T11:39:31.849Z,10732
2017-06-17T11:40:32.553Z,9880
2017-06-17T11:41:33.231Z,8896
2017-06-17T11:42:33.921Z,8352
2017-06-17T11:43:34.929Z,7900
2017-06-17T11:44:35.624Z,7540
2017-06-17T11:45:36.325Z,7772
2017-06-17T11:46:37.039Z,8328
2017-06-17T11:47:37.799Z,8548
2017-06-17T11:48:38.504Z,7672
2017-06-17T11:49:39.269Z,6184
2017-06-17T11:50:39.976Z,5996
2017-06-17T11:51:40.674Z,6592
2017-06-17T11:52:41.377Z,7204
2017-06-17T11:53:42.082Z,7168
2017-06-17T11:54:42.786Z,6388
2017-06-17T11:55:43.792Z,5700
2017-06-17T11:56:44.554Z,4756
2017-06-17T11:57:45.365Z,3716
2017-06-17T11:58:46.105Z,3464
2017-06-17T11:59:46.949Z,3324
2017-06-17T12:00:47.650Z,3116
2017-06-17T12:01:48.673Z,2976
2017-06-17T12:02:49.374Z,2824
2017-06-17T12:03:50.066Z,2752
2017-06-17T12:04:50.763Z,2804
2017-06-17T12:05:51.468Z,2900
2017-06-17T12:06:52.178Z,2944
2017-06-17T12:07:53.181Z,3104
2017-06-17T12:08:53.861Z,3412
2017-06-17T12:09:54.564Z,3724
2017-06-17T12:10:55.317Z,4012
2017-06-17T12:11:56.039Z,4736
2017-06-17T12:12:56.724Z,5616
2017-06-17T12:13:57.723Z,5472
2017-06-17T12:14:58.727Z,5104
2017-06-17T12:15:59.523Z,4508
2017-06-17T12:17:00.230Z,4188
2017-06-17T12:18:00.932Z,3972
2017-06-17T12:19:01.625Z,3864
2017-06-17T12:20:02.383Z,3808
2017-06-17T12:21:03.385Z,3640
2017-06-17T12:22:04.407Z,3496
2017-06-17T12:23:05.127Z,3472
2017-06-17T12:24:05.872Z,3556
2017-06-17T12:25:06.558Z,3588
2017-06-17T12:26:07.324Z,3444
2017-06-17T12:27:08.349Z,3276
2017-06-17T12:28:09.061Z,3236
2017-06-17T12:29:09.836Z,3336
2017-06-17T12:30:10.586Z,3396
2017-06-17T12:31:11.265Z,3324
2017-06-17T12:32:11.970Z,3160
2017-06-17T12:33:12.682Z,3072
2017-06-17T12:34:13.367Z,3044
2017-06-17T12:35:14.065Z,2892
2017-06-17T12:36:14.764Z,2844
2017-06-17T12:37:15.456Z,3012
2017-06-17T12:38:16.159Z,3204
2017-06-17T12:39:17.091Z,3336
2017-06-17T12:40:17.813Z,3432
2017-06-17T12:41:18.520Z,3400
2017-06-17T12:42:19.242Z,3256
2017-06-17T12:43:20.254Z,3420
2017-06-17T12:44:21.013Z,3612
2017-06-17T12:45:22.018Z,3764
2017-06-17T12:46:22.773Z,4228
2017-06-17T12:47:23.468Z,4488
2017-06-17T12:48:24.206Z,4420
2017-06-17T12:49:24.966Z,4712
2017-06-17T12:50:25.671Z,5480
2017-06-17T12:51:26.724Z,6152
2017-06-17T12:52:27.420Z,6544
2017-06-17T12:53:28.120Z,6928
2017-06-17T12:54:28.823Z,7324
2017-06-17T12:55:29.519Z,7448
2017-06-17T12:56:30.281Z,7420
2017-06-17T12:57:31.250Z,7720
2017-06-17T12:58:31.938Z,7924
2017-06-17T12:59:32.623Z,7832
2017-06-17T13:00:33.533Z,7668
2017-06-17T13:01:34.238Z,7644
2017-06-17T13:02:34.938Z,7552
2017-06-17T13:03:35.944Z,7272
2017-06-17T13:04:36.703Z,6948
2017-06-17T13:05:37.464Z,6700
2017-06-17T13:06:38.161Z,6536
2017-06-17T13:07:38.859Z,6388
2017-06-17T13:08:39.566Z,6272
2017-06-17T13:09:40.577Z,6380
2017-06-17T13:10:41.481Z,6388
2017-06-17T13:11:42.251Z,6176
2017-06-17T13:12:42.926Z,5708
2017-06-17T13:13:43.633Z,5504
2017-06-17T13:14:44.381Z,5484
2017-06-17T13:15:45.480Z,5628
2017-06-17T13:16:46.207Z,5888
2017-06-17T13:17:46.961Z,6012
2017-06-17T13:18:47.656Z,6108
2017-06-17T13:19:48.377Z,6232
2017-06-17T13:20:49.157Z,6452
2017-06-17T13:21:50.174Z,6776
2017-06-17T13:22:50.931Z,6996
2017-06-17T13:23:51.692Z,7020
2017-06-17T13:24:52.398Z,7044
2017-06-17T13:25:53.145Z,7096
2017-06-17T13:26:53.852Z,7148
2017-06-17T13:27:54.619Z,6956
2017-06-17T13:28:55.634Z,6544
2017-06-17T13:29:56.329Z,6124
2017-06-17T13:30:57.093Z,5760
2017-06-17T13:31:57.787Z,5540
2017-06-17T13:32:58.497Z,5388
2017-06-17T13:33:59.230Z,5228
2017-06-17T13:35:00.187Z,5120
2017-06-17T13:36:00.895Z,4928
2017-06-17T13:37:01.596Z,4580
2017-06-17T13:38:02.403Z,4176
2017-06-17T13:39:03.093Z,4008
2017-06-17T13:40:03.780Z,3976
2017-06-17T13:41:04.781Z,3944
2017-06-17T13:42:05.495Z,3996
2017-06-17T13:43:06.254Z,4016
2017-06-17T13:44:07.008Z,4012
2017-06-17T13:45:07.715Z,4044
2017-06-17T13:46:08.431Z,4012
2017-06-17T13:47:09.382Z,3968
2017-06-17T13:48:10.197Z,3996
2017-06-17T13:49:10.972Z,4204
2017-06-17T13:50:11.665Z,4532
2017-06-17T13:51:12.365Z,4788